EGMC

Southend Airport

Southend, United Kingdom
METAR EGMC 172050Z 27014KT 8000 -RA BKN006 09/08 Q1018
Observed Flight Rules
Dec-17 @ 20:50 UTC (32 minutes ago) Instrument Flight Rules
Wind Visibility Clouds Conditions
270° at 14 knots 7,998 meters
  • Broken at 600' AGL
  • Light Rain
Temperatures Readings
Current 9°C / 48°F
Dewpoint 8°C / 46°F
Humidity 94%
Altimeter 30.06" Hg
Pressure 1018 hPa
Elevation 15
METAR EGMC 172050Z 27014KT 8000 -RA BKN006 09/08 Q1018
Observed Flight Rules
Dec-17 @ 20:50 UTC
(32 minutes ago)
IFR
Wind Visibility
270° at 14 knots 7,998 meters
Clouds
  • Broken at 600' AGL
Conditions
  • Light Rain
Temperature Dewpoint
9°C / 48°F 8°C / 46°F
Humidity Altimeter Pressure
94% 30.06" Hg 1018 hPa